Time;durP1;ratioP1;P1;durP2;ratioP2;P2;SDS_P1;SDS_P2;PMS_P1;PMS_P2;Temp;Humidity;BMP_temperature;BMP_pressure;BME280_temperature;BME280_humidity;BME280_pressure;Samples;Min_cycle;Max_cycle;Signal;HPM_P1;HPM_P2
2022/07/24 00:00:01;;;;;;;7.18;4.40;;;;;;;26.84;35.76;101551.47;5029194;28;20037;-89
2022/07/24 00:02:39;;;;;;;5.60;3.85;;;;;;;26.82;35.87;101547.13;5032103;28;20099;-89
2022/07/24 00:05:09;;;;;;;6.40;4.60;;;;;;;26.83;35.99;101555.31;5008108;28;20100;-88
2022/07/24 00:07:38;;;;;;;6.95;4.38;;;;;;;26.79;35.70;101559.53;5019946;28;20045;-89
2022/07/24 00:10:08;;;;;;;5.78;4.50;;;;;;;26.79;35.41;101550.28;5026311;28;20049;-89
2022/07/24 00:12:38;;;;;;;5.55;4.57;;;;;;;26.78;35.97;101543.84;5015296;28;20049;-89
2022/07/24 00:15:09;;;;;;;5.97;4.22;;;;;;;26.73;35.65;101549.16;5009259;28;20048;-89
2022/07/24 00:17:38;;;;;;;5.55;4.32;;;;;;;26.74;35.79;101547.22;5014268;28;20107;-89
2022/07/24 00:20:10;;;;;;;6.05;4.57;;;;;;;26.73;35.77;101551.94;5013805;28;20049;-89
2022/07/24 00:22:39;;;;;;;5.85;4.30;;;;;;;26.68;35.99;101542.44;5013818;28;20052;-89
2022/07/24 00:25:08;;;;;;;5.75;3.92;;;;;;;26.67;35.94;101547.13;5012258;28;20041;-89
2022/07/24 00:27:36;;;;;;;5.35;4.20;;;;;;;26.67;35.99;101549.06;5031441;28;20115;-89
2022/07/24 00:30:05;;;;;;;5.38;4.35;;;;;;;26.65;35.80;101546.44;5012438;28;20173;-88
2022/07/24 00:32:34;;;;;;;5.68;4.53;;;;;;;26.65;36.12;101542.81;5031209;28;20045;-89
2022/07/24 00:35:02;;;;;;;5.32;4.20;;;;;;;26.63;36.00;101536.53;5017089;28;20033;-89
2022/07/24 00:37:32;;;;;;;5.78;4.55;;;;;;;26.63;35.48;101542.13;5028747;28;20041;-88
2022/07/24 00:40:00;;;;;;;5.93;4.20;;;;;;;26.60;35.69;101545.31;5012825;28;20145;-89
2022/07/24 00:42:29;;;;;;;5.25;4.10;;;;;;;26.57;35.70;101535.41;5012081;28;20476;-89
2022/07/24 00:44:57;;;;;;;5.25;4.15;;;;;;;26.55;35.76;101534.72;5030657;28;20045;-89
2022/07/24 00:47:27;;;;;;;5.57;4.30;;;;;;;26.51;35.60;101539.81;5031437;28;20034;-89
2022/07/24 00:49:57;;;;;;;6.10;4.65;;;;;;;26.49;35.49;101539.13;5013064;28;20049;-89
2022/07/24 00:52:28;;;;;;;6.03;4.35;;;;;;;26.46;35.13;101536.72;5001595;28;20045;-89
2022/07/24 00:54:58;;;;;;;5.72;4.40;;;;;;;26.43;35.27;101537.13;5011625;28;20049;-89
2022/07/24 00:57:27;;;;;;;6.32;4.72;;;;;;;26.40;35.23;101545.84;5013529;28;20113;-89
2022/07/24 00:59:55;;;;;;;6.10;4.35;;;;;;;26.39;35.54;101543.25;5009743;28;20076;-89
2022/07/24 01:02:23;;;;;;;5.57;4.38;;;;;;;26.36;35.58;101541.69;5029155;28;20058;-89
2022/07/24 01:04:52;;;;;;;5.50;4.60;;;;;;;26.36;35.24;101546.38;5030728;28;20038;-89
2022/07/24 01:07:21;;;;;;;5.00;4.00;;;;;;;26.36;35.56;101551.97;5013299;28;20042;-89
2022/07/24 01:09:50;;;;;;;5.20;4.28;;;;;;;26.34;35.62;101551.31;5011247;28;20063;-88
2022/07/24 01:12:20;;;;;;;5.57;4.18;;;;;;;26.36;35.63;101554.75;5007000;28;20072;-88
2022/07/24 01:14:51;;;;;;;5.70;4.35;;;;;;;26.32;35.55;101551.50;5028605;28;20132;-89
2022/07/24 01:17:21;;;;;;;6.35;4.82;;;;;;;26.31;35.38;101548.88;5012070;28;20050;-89
2022/07/24 01:19:51;;;;;;;4.78;4.18;;;;;;;26.31;35.38;101546.09;5030149;28;20042;-89
2022/07/24 01:22:20;;;;;;;5.53;4.40;;;;;;;26.32;35.46;101542.28;5009176;28;20052;-89
2022/07/24 01:24:49;;;;;;;5.57;4.25;;;;;;;26.29;35.51;101546.28;5029257;28;20057;-89
2022/07/24 01:27:17;;;;;;;5.13;4.53;;;;;;;26.28;35.47;101543.69;5006479;28;20496;-89
2022/07/24 01:29:48;;;;;;;5.20;4.50;;;;;;;26.26;35.34;101545.81;5021839;28;20038;-89
2022/07/24 01:32:16;;;;;;;5.05;4.25;;;;;;;26.24;35.27;101543.19;5019620;28;20053;-88
2022/07/24 01:34:45;;;;;;;5.60;4.13;;;;;;;26.21;35.26;101539.91;5032344;28;20096;-88
2022/07/24 01:37:13;;;;;;;4.93;4.05;;;;;;;26.19;35.13;101537.28;5011888;28;20049;-88
2022/07/24 01:39:43;;;;;;;5.35;4.25;;;;;;;26.19;35.38;101542.84;5011755;28;20033;-89
2022/07/24 01:42:11;;;;;;;5.25;4.13;;;;;;;26.14;35.47;101539.78;5007399;28;20041;-89
2022/07/24 01:44:40;;;;;;;6.10;4.28;;;;;;;26.11;35.55;101532.66;5013246;28;20045;-89
2022/07/24 01:47:08;;;;;;;5.40;4.68;;;;;;;26.09;35.54;101532.00;5012867;28;20042;-88
2022/07/24 01:49:36;;;;;;;5.72;4.40;;;;;;;26.06;35.66;101529.59;5009469;28;20073;-89
2022/07/24 01:52:05;;;;;;;5.15;4.45;;;;;;;26.04;35.55;101522.47;5010226;28;20352;-89
2022/07/24 01:54:33;;;;;;;5.82;4.40;;;;;;;26.01;35.74;101529.31;5009975;28;20045;-89
2022/07/24 01:57:04;;;;;;;6.10;4.55;;;;;;;25.99;35.61;101523.03;5011672;28;20048;-89
2022/07/24 01:59:33;;;;;;;5.22;4.05;;;;;;;25.91;35.64;101523.13;5010210;28;20053;-89
2022/07/24 02:02:02;;;;;;;6.72;4.88;;;;;;;25.90;35.87;101523.28;5011380;28;20052;-89
2022/07/24 02:04:30;;;;;;;5.30;4.43;;;;;;;25.87;35.92;101518.97;5010551;28;20049;-89
2022/07/24 02:07:10;;;;;;;5.53;4.53;;;;;;;25.88;35.85;101517.03;5022694;28;20045;-89
2022/07/24 02:09:38;;;;;;;5.43;4.63;;;;;;;25.80;35.82;101520.75;5028715;28;20041;-89
2022/07/24 02:12:09;;;;;;;6.60;5.10;;;;;;;25.79;35.89;101524.59;5011904;28;20056;-89
2022/07/24 02:14:37;;;;;;;6.57;4.80;;;;;;;25.74;36.01;101527.06;5011344;28;20313;-89
2022/07/24 02:17:06;;;;;;;5.68;4.72;;;;;;;25.73;36.13;101526.19;5010926;28;20041;-89
2022/07/24 02:19:35;;;;;;;6.72;4.80;;;;;;;25.69;36.47;101521.22;5026842;28;20076;-89
2022/07/24 02:22:04;;;;;;;5.70;4.60;;;;;;;25.68;36.25;101525.91;5011682;28;20044;-90
2022/07/24 02:24:32;;;;;;;6.40;4.40;;;;;;;25.66;36.11;101529.91;5013221;28;20050;-88
2022/07/24 02:27:01;;;;;;;5.88;4.47;;;;;;;25.65;36.12;101528.19;5013162;28;20049;-88
2022/07/24 02:29:32;;;;;;;5.25;4.38;;;;;;;25.65;36.45;101520.69;5027763;28;20483;-89
2022/07/24 02:32:01;;;;;;;5.72;4.45;;;;;;;25.61;36.13;101524.06;5008126;28;20300;-89
2022/07/24 02:34:29;;;;;;;5.32;4.20;;;;;;;25.60;36.37;101516.75;5024158;28;20033;-89
2022/07/24 02:36:59;;;;;;;5.15;4.40;;;;;;;25.57;36.08;101506.81;5009524;28;20044;-89
2022/07/24 02:39:27;;;;;;;5.50;4.50;;;;;;;25.57;36.20;101505.94;5025634;28;20053;-89
2022/07/24 02:41:56;;;;;;;5.97;4.45;;;;;;;25.55;35.93;101508.91;5027117;28;20049;-89
2022/07/24 02:44:24;;;;;;;5.13;4.53;;;;;;;25.52;36.64;101500.09;5012124;28;20045;-89
2022/07/24 02:46:55;;;;;;;6.38;4.40;;;;;;;25.54;36.32;101503.53;5011026;28;20049;-89
2022/07/24 02:49:29;;;;;;;6.20;4.43;;;;;;;25.49;36.54;101504.09;5014843;28;20209;-88
2022/07/24 02:51:57;;;;;;;5.63;4.00;;;;;;;25.48;36.46;101513.47;5027594;28;20049;-89
2022/07/24 02:54:26;;;;;;;5.60;4.50;;;;;;;25.48;36.55;101507.06;5011083;28;20044;-89
2022/07/24 02:56:54;;;;;;;6.43;4.18;;;;;;;25.47;36.65;101510.88;5027335;28;20556;-89
2022/07/24 02:59:22;;;;;;;5.40;4.10;;;;;;;25.46;36.93;101504.44;5009488;28;20048;-89
2022/07/24 03:01:51;;;;;;;5.13;4.22;;;;;;;25.46;36.28;101504.44;5031417;28;20035;-89
2022/07/24 03:04:21;;;;;;;4.65;3.70;;;;;;;25.49;36.64;101506.00;5013590;28;20074;-89
2022/07/24 03:06:49;;;;;;;4.93;4.00;;;;;;;25.46;36.60;101500.81;5033862;28;20041;-89
2022/07/24 03:09:18;;;;;;;5.47;3.83;;;;;;;25.47;36.59;101502.53;5013887;28;20038;-89
2022/07/24 03:11:48;;;;;;;6.10;4.43;;;;;;;25.47;36.43;101500.63;5015007;28;20069;-88
2022/07/24 03:14:16;;;;;;;6.32;4.05;;;;;;;25.43;36.45;101512.31;5011543;28;20048;-89
2022/07/24 03:16:44;;;;;;;5.00;3.70;;;;;;;25.40;36.50;101500.50;5015025;28;20137;-90
2022/07/24 03:19:13;;;;;;;5.35;4.50;;;;;;;25.39;36.55;101503.47;5012838;28;20045;-89
2022/07/24 03:21:46;;;;;;;5.32;4.32;;;;;;;25.36;36.50;101501.94;5009833;28;20068;-89
2022/07/24 03:24:16;;;;;;;5.60;4.40;;;;;;;25.33;36.77;101498.63;5012680;28;20038;-90
2022/07/24 03:26:45;;;;;;;6.50;4.30;;;;;;;25.30;36.37;101499.00;5016254;28;20540;-89
2022/07/24 03:29:16;;;;;;;5.18;4.47;;;;;;;25.28;36.67;101496.38;5025041;28;20492;-89
2022/07/24 03:31:45;;;;;;;4.97;4.18;;;;;;;25.26;36.49;101492.94;5011983;28;20563;-89
2022/07/24 03:34:20;;;;;;;6.38;4.20;;;;;;;25.24;36.83;101496.94;5013842;28;20056;-90
2022/07/24 03:36:50;;;;;;;5.68;4.15;;;;;;;25.24;36.82;101506.16;5011703;28;20511;-89
2022/07/24 03:39:19;;;;;;;5.60;4.13;;;;;;;25.18;36.88;101501.34;5013028;28;20048;-89
2022/07/24 03:41:47;;;;;;;4.70;3.80;;;;;;;25.17;36.99;101496.81;5027099;28;20069;-89
2022/07/24 03:44:15;;;;;;;5.68;4.18;;;;;;;25.15;36.71;101498.91;5029760;28;20053;-89
2022/07/24 03:46:43;;;;;;;5.13;4.25;;;;;;;25.13;36.78;101509.34;5013550;28;20037;-89
2022/07/24 03:49:12;;;;;;;5.47;4.50;;;;;;;25.13;36.86;101505.69;5014539;28;20069;-89
2022/07/24 03:51:40;;;;;;;4.85;4.35;;;;;;;25.12;37.14;101517.88;5012188;28;20093;-90
2022/07/24 03:54:10;;;;;;;7.68;4.40;;;;;;;25.12;37.05;101512.31;5013433;28;20088;-90
2022/07/24 03:56:41;;;;;;;5.40;4.20;;;;;;;25.08;37.06;101511.81;5014246;28;20045;-89
2022/07/24 03:59:09;;;;;;;5.30;4.15;;;;;;;25.07;36.92;101507.28;5027981;28;20048;-90
2022/07/24 04:01:38;;;;;;;5.00;4.10;;;;;;;25.08;37.42;101511.81;5030081;28;20059;-89
2022/07/24 04:04:06;;;;;;;5.65;4.10;;;;;;;25.08;37.13;101519.28;4999566;28;20046;-89
2022/07/24 04:06:36;;;;;;;5.72;4.13;;;;;;;25.10;37.00;101522.75;5020712;28;20037;-89
2022/07/24 04:09:05;;;;;;;5.00;4.22;;;;;;;25.10;36.94;101520.84;5005076;28;20145;-89
2022/07/24 04:11:36;;;;;;;4.82;4.10;;;;;;;25.10;36.98;101526.41;5013580;28;20415;-89
2022/07/24 04:14:05;;;;;;;5.75;4.57;;;;;;;25.10;37.21;101520.84;5004232;28;20037;-89
2022/07/24 04:16:34;;;;;;;4.82;4.28;;;;;;;25.09;37.36;101516.31;5015137;28;20037;-90
2022/07/24 04:19:02;;;;;;;5.38;4.28;;;;;;;25.08;37.05;101516.50;5032428;28;20057;-90
2022/07/24 04:21:34;;;;;;;5.22;4.40;;;;;;;25.06;37.41;101516.66;5013333;28;20037;-90
2022/07/24 04:24:03;;;;;;;5.68;4.35;;;;;;;25.07;37.12;101506.41;5030485;28;20488;-89
2022/07/24 04:26:31;;;;;;;5.78;4.22;;;;;;;25.05;37.49;101516.84;5014612;28;20042;-90
2022/07/24 04:29:01;;;;;;;5.15;4.40;;;;;;;25.05;37.12;101514.94;5020700;28;20042;-90
2022/07/24 04:31:30;;;;;;;5.40;4.25;;;;;;;25.01;37.04;101514.44;5012834;28;20053;-90
2022/07/24 04:34:00;;;;;;;5.03;4.28;;;;;;;24.99;37.08;101516.53;5018571;28;20042;-90
2022/07/24 04:36:29;;;;;;;4.63;4.00;;;;;;;24.98;37.41;101516.69;5009133;28;20511;-90
2022/07/24 04:38:58;;;;;;;5.00;4.22;;;;;;;24.97;37.70;101514.97;5025668;28;20045;-90
2022/07/24 04:41:29;;;;;;;4.93;4.25;;;;;;;24.93;37.62;101525.59;5012613;28;20042;-90
2022/07/24 04:44:01;;;;;;;5.07;4.07;;;;;;;24.97;37.83;101517.75;5014913;28;20034;-89
2022/07/24 04:46:32;;;;;;;6.82;4.47;;;;;;;24.94;37.46;101510.66;5009325;28;20061;-88
2022/07/24 04:49:01;;;;;;;5.28;4.20;;;;;;;24.92;37.37;101509.97;5032029;28;20041;-89
2022/07/24 04:51:30;;;;;;;5.60;4.57;;;;;;;24.94;37.50;101509.78;5009716;28;20068;-90
2022/07/24 04:53:59;;;;;;;5.18;4.15;;;;;;;24.93;37.41;101508.06;5009845;28;20043;-89
2022/07/24 04:56:31;;;;;;;5.40;4.63;;;;;;;24.92;37.78;101515.53;5042056;28;20072;-90
2022/07/24 04:59:02;;;;;;;5.30;4.18;;;;;;;24.90;38.04;101505.59;5012381;28;20045;-89
2022/07/24 05:01:31;;;;;;;4.77;4.20;;;;;;;24.89;37.94;101513.06;5021295;28;20049;-91
2022/07/24 05:03:59;;;;;;;5.18;4.25;;;;;;;24.91;38.06;101505.44;5032330;28;20307;-90
2022/07/24 05:06:28;;;;;;;4.95;4.40;;;;;;;24.93;38.07;101499.72;5014073;28;20091;-89
2022/07/24 05:08:56;;;;;;;4.78;4.18;;;;;;;24.93;38.14;101503.38;5032080;28;20042;-89
2022/07/24 05:11:25;;;;;;;6.38;4.43;;;;;;;24.96;38.00;101502.13;5012596;28;20053;-88
2022/07/24 05:13:53;;;;;;;5.25;4.20;;;;;;;24.97;38.21;101501.94;5011058;28;20508;-88
2022/07/24 05:16:23;;;;;;;5.68;4.30;;;;;;;25.04;38.12;101499.31;5012890;28;20370;-88
2022/07/24 05:18:51;;;;;;;5.72;4.22;;;;;;;25.06;38.11;101505.56;5000421;28;20041;-88
2022/07/24 05:21:19;;;;;;;5.70;4.47;;;;;;;25.13;38.06;101503.78;5029150;28;20127;-88
2022/07/24 05:23:48;;;;;;;5.50;4.35;;;;;;;25.20;38.12;101509.50;5011366;28;20381;-88
2022/07/24 05:26:16;;;;;;;5.85;4.50;;;;;;;25.31;38.32;101506.28;5020731;28;20048;-88
2022/07/24 05:28:44;;;;;;;5.28;4.32;;;;;;;25.43;38.03;101502.06;5008283;28;20042;-87
2022/07/24 05:31:13;;;;;;;5.75;4.30;;;;;;;25.54;37.83;101503.53;5010358;28;20041;-88
2022/07/24 05:33:42;;;;;;;5.10;4.05;;;;;;;25.66;37.98;101504.88;5011288;28;20096;-88
2022/07/24 05:36:11;;;;;;;5.97;4.13;;;;;;;25.75;37.88;101514.91;5029539;28;20049;-88
2022/07/24 05:38:40;;;;;;;4.60;3.97;;;;;;;25.85;37.68;101517.44;5029255;28;20041;-88
2022/07/24 05:41:08;;;;;;;4.63;4.05;;;;;;;25.98;37.92;101526.00;5006702;28;20060;-87
2022/07/24 05:43:36;;;;;;;5.30;3.95;;;;;;;26.09;37.69;101531.16;5027203;28;20045;-87
2022/07/24 05:46:05;;;;;;;4.70;3.90;;;;;;;26.22;37.47;101538.84;5013923;28;20132;-88
2022/07/24 05:48:34;;;;;;;5.50;4.07;;;;;;;26.32;37.32;101537.56;5009997;28;20423;-88
2022/07/24 05:51:08;;;;;;;5.68;4.18;;;;;;;26.46;37.21;101539.50;5010496;28;20060;-87
2022/07/24 05:53:38;;;;;;;5.13;4.07;;;;;;;26.54;37.21;101530.19;5002789;28;20068;-87
2022/07/24 05:56:07;;;;;;;5.07;3.88;;;;;;;26.67;37.17;101540.69;5011378;28;20041;-87
2022/07/24 05:58:36;;;;;;;5.50;4.13;;;;;;;26.77;36.86;101536.53;5026298;28;20069;-87
2022/07/24 06:01:04;;;;;;;5.07;4.07;;;;;;;26.86;36.63;101542.91;5024093;28;20386;-87
2022/07/24 06:03:32;;;;;;;5.68;4.32;;;;;;;26.96;36.43;101537.06;4997031;28;20052;-87
2022/07/24 06:06:00;;;;;;;5.93;4.18;;;;;;;27.07;36.32;101537.47;5025279;28;20041;-87
2022/07/24 06:08:30;;;;;;;6.22;4.45;;;;;;;27.18;36.44;101534.16;5017269;28;20076;-87
2022/07/24 06:11:01;;;;;;;5.10;4.43;;;;;;;27.25;36.28;101537.91;5027401;28;20440;-86
2022/07/24 06:13:30;;;;;;;6.13;4.88;;;;;;;27.38;36.50;101542.78;5026234;28;20037;-86
2022/07/24 06:15:59;;;;;;;6.05;4.65;;;;;;;27.49;36.20;101547.00;5002229;28;20111;-87
2022/07/24 06:18:29;;;;;;;5.50;4.03;;;;;;;27.60;36.22;101552.94;5027170;28;20565;-86
2022/07/24 06:21:05;;;;;;;6.32;4.97;;;;;;;27.74;35.25;101544.75;5011198;28;20053;-87
2022/07/24 06:23:36;;;;;;;5.00;4.40;;;;;;;27.82;35.51;101544.59;5029638;28;20136;-87
2022/07/24 06:26:05;;;;;;;5.43;4.57;;;;;;;27.90;35.27;101541.69;5023419;28;20056;-87
2022/07/24 06:28:33;;;;;;;5.35;4.40;;;;;;;27.99;35.67;101551.66;5010211;28;20049;-88
2022/07/24 06:31:01;;;;;;;5.35;4.30;;;;;;;28.08;35.40;101547.69;5026940;28;20037;-89
2022/07/24 06:33:31;;;;;;;5.32;4.22;;;;;;;28.17;35.33;101548.41;5009215;28;20045;-89
2022/07/24 06:36:06;;;;;;;5.13;4.53;;;;;;;28.27;35.03;101544.22;5023590;28;20045;-89
2022/07/24 06:38:38;;;;;;;5.63;4.60;;;;;;;28.37;34.55;101544.72;5029501;28;20042;-89
2022/07/24 06:41:17;;;;;;;5.20;4.32;;;;;;;28.47;34.76;101537.94;5010890;28;20068;-89
2022/07/24 06:43:45;;;;;;;5.38;4.57;;;;;;;28.53;34.88;101542.69;4998440;28;20080;-88
2022/07/24 06:46:18;;;;;;;5.22;4.20;;;;;;;28.65;34.63;101546.66;5006511;28;20507;-89
2022/07/24 06:48:48;;;;;;;5.25;4.50;;;;;;;28.71;34.62;101545.84;5006478;28;20042;-90
2022/07/24 06:51:20;;;;;;;5.05;4.43;;;;;;;28.83;34.20;101546.16;5006312;28;20439;-88
2022/07/24 06:53:50;;;;;;;5.60;4.78;;;;;;;28.88;34.38;101538.91;5028027;28;20461;-88
2022/07/24 06:56:18;;;;;;;5.47;4.47;;;;;;;28.97;34.18;101536.78;5019390;28;20499;-89
2022/07/24 06:58:47;;;;;;;5.43;4.75;;;;;;;29.03;34.09;101536.81;5009853;28;20041;-88
2022/07/24 07:01:18;;;;;;;5.65;4.63;;;;;;;29.13;34.04;101537.31;5025675;28;20052;-87
2022/07/24 07:04:11;;;;;;;;;;;;;;;28.90;34.48;101536.75;5009798;28;20128;-87
2022/07/24 07:06:42;;;;;;;4.90;3.85;;;;;;;29.23;34.08;101533.28;5013068;28;19935;-88
2022/07/24 07:09:13;;;;;;;5.32;4.30;;;;;;;29.34;33.70;101525.13;5010827;28;20104;-88
2022/07/24 07:11:41;;;;;;;6.10;4.00;;;;;;;29.40;33.52;101527.09;4999144;28;20139;-88
2022/07/24 07:14:19;;;;;;;5.10;4.60;;;;;;;29.47;33.63;101535.56;5005208;28;20048;-89
2022/07/24 07:16:49;;;;;;;5.00;4.00;;;;;;;29.55;33.27;101529.78;5008688;28;20041;-88
2022/07/24 07:19:19;;;;;;;5.68;4.28;;;;;;;29.63;33.09;101537.09;5000153;28;20042;-89
2022/07/24 07:21:53;;;;;;;5.00;4.28;;;;;;;29.70;32.96;101532.38;4995897;28;20038;-89
2022/07/24 07:24:26;;;;;;;5.57;4.38;;;;;;;29.76;32.38;101540.78;4998747;28;20066;-89
2022/07/24 07:26:57;;;;;;;4.75;4.22;;;;;;;29.81;32.87;101542.97;5013233;28;20136;-90
2022/07/24 07:29:28;;;;;;;4.68;4.18;;;;;;;29.88;32.68;101546.66;5027393;28;20064;-89
2022/07/24 07:31:57;;;;;;;4.95;4.10;;;;;;;29.96;32.36;101543.69;5007733;28;20061;-89
2022/07/24 07:34:26;;;;;;;6.30;4.53;;;;;;;30.04;32.23;101539.81;5024169;28;20041;-89
2022/07/24 07:36:54;;;;;;;5.28;4.20;;;;;;;30.09;31.88;101543.69;5023363;28;20112;-88
2022/07/24 07:39:24;;;;;;;5.45;4.57;;;;;;;30.15;31.79;101537.22;5021897;28;20058;-88
2022/07/24 07:41:55;;;;;;;5.53;4.30;;;;;;;30.19;31.80;101541.31;5029880;28;20100;-89
2022/07/24 07:44:23;;;;;;;4.88;4.18;;;;;;;30.25;32.14;101539.59;5009180;28;20073;-89
2022/07/24 07:46:52;;;;;;;5.90;4.30;;;;;;;30.30;31.71;101539.81;5012014;28;20045;-88
2022/07/24 07:49:21;;;;;;;5.70;4.32;;;;;;;30.35;31.54;101540.03;5007150;28;20121;-88
2022/07/24 07:51:51;;;;;;;6.18;4.30;;;;;;;30.41;31.69;101536.34;5008848;28;20499;-87
2022/07/24 07:54:19;;;;;;;5.38;4.40;;;;;;;30.48;31.40;101534.41;4999188;28;20045;-88
2022/07/24 07:56:49;;;;;;;5.35;4.00;;;;;;;30.58;31.65;101542.41;5014860;28;20046;-87
2022/07/24 07:59:18;;;;;;;4.70;3.97;;;;;;;30.62;31.57;101541.78;5026014;28;20045;-87
2022/07/24 08:01:46;;;;;;;5.55;3.80;;;;;;;30.71;31.77;101544.34;5018051;28;20515;-87
2022/07/24 08:04:16;;;;;;;5.70;4.88;;;;;;;30.80;31.77;101538.28;5030054;28;20044;-87
2022/07/24 08:06:54;;;;;;;4.65;3.95;;;;;;;30.93;31.04;101540.19;5027401;28;20041;-85
2022/07/24 08:09:22;;;;;;;5.25;4.30;;;;;;;30.96;31.32;101540.63;5025983;28;20049;-86
2022/07/24 08:12:00;;;;;;;5.78;4.40;;;;;;;31.08;30.68;101535.22;5012737;28;20060;-87
2022/07/24 08:14:33;;;;;;;6.00;4.57;;;;;;;31.15;30.99;101535.19;5003779;28;20045;-86
2022/07/24 08:17:03;;;;;;;5.45;4.05;;;;;;;31.21;30.92;101535.19;5029076;28;20041;-85
2022/07/24 08:19:31;;;;;;;5.80;4.18;;;;;;;31.27;30.43;101542.72;5016531;28;20045;-88
2022/07/24 08:22:04;;;;;;;4.88;4.32;;;;;;;31.32;30.34;101525.19;5027143;28;20237;-88
2022/07/24 08:24:38;;;;;;;5.90;4.40;;;;;;;31.42;30.49;101530.34;5009152;28;20049;-87
2022/07/24 08:27:09;;;;;;;4.97;4.35;;;;;;;31.50;30.09;101530.94;5006502;28;20057;-89
2022/07/24 08:29:47;;;;;;;5.78;4.10;;;;;;;31.58;29.65;101524.19;5011851;28;20507;-90
2022/07/24 08:32:15;;;;;;;5.30;4.53;;;;;;;31.61;30.15;101524.66;5018567;28;20056;-89
2022/07/24 08:34:46;;;;;;;5.00;3.80;;;;;;;31.67;29.84;101531.31;5012440;28;20048;-86
2022/07/24 08:37:14;;;;;;;6.45;4.38;;;;;;;31.73;29.93;101522.84;5013213;28;20037;-87
2022/07/24 08:39:42;;;;;;;5.40;4.05;;;;;;;31.79;30.09;101520.25;5011344;28;20047;-87
2022/07/24 08:42:12;;;;;;;6.18;3.90;;;;;;;31.88;29.84;101527.28;5013552;28;20045;-79
2022/07/24 08:44:40;;;;;;;5.80;4.60;;;;;;;31.92;29.95;101518.19;5007861;28;20056;-82
2022/07/24 08:47:09;;;;;;;5.47;4.22;;;;;;;31.99;29.93;101515.31;5012327;28;20048;-82
2022/07/24 08:49:38;;;;;;;4.93;4.03;;;;;;;32.06;29.73;101518.94;5032130;28;20037;-82
2022/07/24 08:52:08;;;;;;;5.97;4.63;;;;;;;32.12;29.29;101516.06;5030260;28;20112;-81
2022/07/24 08:54:37;;;;;;;5.07;4.22;;;;;;;32.19;29.42;101518.88;5030450;28;20037;-82
2022/07/24 08:57:05;;;;;;;4.90;4.20;;;;;;;32.24;29.33;101521.84;5012595;28;20042;-81
2022/07/24 08:59:34;;;;;;;5.22;4.50;;;;;;;32.32;28.82;101506.66;5027741;28;20084;-81
2022/07/24 09:02:02;;;;;;;6.55;4.80;;;;;;;32.35;28.88;101498.63;5029493;28;20038;-82
2022/07/24 09:04:36;;;;;;;5.32;4.20;;;;;;;32.44;28.92;101502.00;5020272;28;20097;-82
2022/07/24 09:07:06;;;;;;;4.95;4.10;;;;;;;32.48;28.89;101506.94;5028878;28;20447;-82
2022/07/24 09:09:37;;;;;;;5.40;4.68;;;;;;;32.50;28.80;101501.09;5029370;28;20476;-81
2022/07/24 09:12:08;;;;;;;5.55;4.65;;;;;;;32.58;28.57;101486.72;5030311;28;20100;-81
2022/07/24 09:14:40;;;;;;;5.22;4.50;;;;;;;32.64;28.95;101494.22;5010432;28;20364;-82
2022/07/24 09:17:10;;;;;;;6.82;4.38;;;;;;;32.67;28.68;101481.66;5011336;28;20045;-81
2022/07/24 09:19:51;;;;;;;6.45;5.07;;;;;;;32.75;28.25;101482.25;5029334;28;20120;-81
2022/07/24 09:22:27;;;;;;;5.57;4.68;;;;;;;32.81;28.24;101480.44;5029811;28;20063;-81
2022/07/24 09:25:11;;;;;;;6.25;4.35;;;;;;;32.83;28.01;101470.69;5029754;28;20065;-81
2022/07/24 09:27:41;;;;;;;5.13;3.85;;;;;;;32.87;28.46;101480.34;5010949;28;20045;-82
2022/07/24 09:30:23;;;;;;;5.43;4.65;;;;;;;32.93;28.03;101475.78;5020996;28;20069;-82
2022/07/24 09:32:54;;;;;;;5.80;4.57;;;;;;;32.96;27.95;101474.41;5029856;28;20049;-81
2022/07/24 09:35:25;;;;;;;5.60;4.63;;;;;;;32.99;28.30;101469.19;5022276;28;20046;-80
2022/07/24 09:37:57;;;;;;;5.18;4.20;;;;;;;33.07;27.91;101468.00;5028956;28;20049;-80
2022/07/24 09:40:30;;;;;;;4.85;4.35;;;;;;;33.12;28.20;101457.75;5008566;28;20041;-82
2022/07/24 09:43:19;;;;;;;7.20;4.57;;;;;;;33.14;27.97;101460.34;5007539;28;20501;-81
2022/07/24 09:45:58;;;;;;;5.68;4.43;;;;;;;33.20;27.54;101460.25;5027142;28;20048;-82
2022/07/24 09:48:29;;;;;;;5.50;4.32;;;;;;;33.23;27.87;101464.56;5012253;28;20037;-81
2022/07/24 09:50:59;;;;;;;4.90;3.78;;;;;;;33.29;28.01;101465.56;5025653;28;20463;-80
2022/07/24 09:53:28;;;;;;;5.55;3.83;;;;;;;33.32;28.25;101453.84;5027637;28;20633;-80
2022/07/24 09:56:02;;;;;;;5.13;4.28;;;;;;;33.36;27.84;101458.75;5010607;28;20128;-79
2022/07/24 09:58:32;;;;;;;5.35;4.40;;;;;;;33.41;27.80;101455.25;5028068;28;20124;-79
2022/07/24 10:01:02;;;;;;;5.90;4.50;;;;;;;33.45;27.19;101448.88;5020191;28;20065;-80
2022/07/24 10:03:31;;;;;;;5.20;4.70;;;;;;;33.50;27.19;101448.19;5028013;28;20495;-79
2022/07/24 10:06:03;;;;;;;5.18;4.50;;;;;;;33.53;27.26;101447.69;5024938;28;20030;-80
2022/07/24 10:08:31;;;;;;;4.95;4.03;;;;;;;33.51;27.69;101447.94;5028511;28;20044;-80
2022/07/24 10:11:00;;;;;;;6.45;4.28;;;;;;;33.55;27.27;101442.69;5027388;28;20053;-79
2022/07/24 10:13:34;;;;;;;5.88;4.40;;;;;;;33.58;26.99;101439.38;5027149;28;20393;-79
2022/07/24 10:16:28;;;;;;;5.10;4.50;;;;;;;33.60;27.16;101440.00;5027213;28;20052;-78
2022/07/24 10:18:58;;;;;;;5.78;4.28;;;;;;;33.67;27.05;101428.63;5034872;28;20045;-78
2022/07/24 10:21:29;;;;;;;5.38;4.00;;;;;;;33.71;27.26;101427.91;5011061;28;20045;-79
2022/07/24 10:24:41;;;;;;;5.20;4.15;;;;;;;33.69;27.35;101427.28;5028422;28;20443;-78
2022/07/24 10:27:29;;;;;;;5.43;4.07;;;;;;;33.81;26.66;101431.03;5030237;28;20033;-78
2022/07/24 10:29:59;;;;;;;5.38;4.03;;;;;;;33.84;27.09;101433.38;5023955;28;20433;-79
2022/07/24 10:32:31;;;;;;;5.03;4.00;;;;;;;33.93;26.96;101433.88;5028953;28;20046;-79
2022/07/24 10:35:12;;;;;;;5.55;4.50;;;;;;;33.96;26.90;101437.03;5010454;28;20073;-79
2022/07/24 10:37:56;;;;;;;6.05;4.28;;;;;;;34.01;26.47;101427.03;5027220;28;20044;-79
2022/07/24 10:40:31;;;;;;;5.90;4.65;;;;;;;34.08;26.78;101431.44;5028658;28;20045;-79
2022/07/24 10:43:13;;;;;;;6.97;4.68;;;;;;;34.12;26.30;101417.69;5030099;28;20040;-81
2022/07/24 10:45:44;;;;;;;4.80;4.00;;;;;;;34.14;26.82;101418.31;5049417;28;20041;-83
2022/07/24 10:48:51;;;;;;;5.88;4.47;;;;;;;34.12;26.45;101418.56;5057349;28;20157;-81
2022/07/24 10:51:22;;;;;;;5.70;4.28;;;;;;;34.20;26.64;101409.72;5021125;28;20095;-82
2022/07/24 10:53:53;;;;;;;5.35;4.00;;;;;;;34.28;26.05;101414.19;5049333;28;20113;-83
2022/07/24 10:56:27;;;;;;;5.80;4.25;;;;;;;34.31;25.69;101416.53;5050744;28;20059;-84
2022/07/24 10:59:10;;;;;;;5.55;4.38;;;;;;;34.34;25.96;101408.41;5048574;28;20041;-84
2022/07/24 11:01:44;;;;;;;5.70;4.25;;;;;;;34.36;25.69;101394.06;5027590;28;20369;-82
2022/07/24 11:04:32;;;;;;;6.30;4.35;;;;;;;34.37;25.86;101381.69;5047914;28;20049;-85
2022/07/24 11:07:11;;;;;;;5.43;4.43;;;;;;;34.43;25.62;101391.97;5049712;28;20047;-86
2022/07/24 11:09:57;;;;;;;5.18;4.10;;;;;;;34.45;25.55;101392.59;5051233;28;20041;-82
2022/07/24 11:12:30;;;;;;;5.53;4.00;;;;;;;34.51;25.02;101390.75;5065616;28;20489;-82
2022/07/24 11:17:53;;;;;;;5.32;4.35;;;;;;;34.53;24.84;101382.88;5047722;28;20059;-82
2022/07/24 11:20:23;;;;;;;4.80;4.07;;;;;;;34.58;25.15;101385.84;5058820;28;20784;-83
2022/07/24 11:22:54;;;;;;;7.38;4.13;;;;;;;34.57;25.09;101378.47;5052110;28;20536;-82
2022/07/24 11:25:24;;;;;;;5.30;4.00;;;;;;;34.58;25.44;101378.25;5046596;28;20045;-82
2022/07/24 11:28:00;;;;;;;6.18;4.05;;;;;;;34.64;24.68;101377.22;5052748;28;20072;-82
2022/07/24 11:30:30;;;;;;;4.72;3.67;;;;;;;34.65;25.14;101376.13;5052393;28;20041;-82
2022/07/24 11:32:59;;;;;;;4.80;4.07;;;;;;;34.67;24.30;101362.63;5052562;28;20037;-82
2022/07/24 11:35:34;;;;;;;4.80;4.18;;;;;;;34.73;23.76;101374.91;5051687;28;20072;-83
2022/07/24 11:38:04;;;;;;;4.50;4.10;;;;;;;34.72;24.00;101364.69;5030324;28;20036;-83
2022/07/24 11:40:33;;;;;;;5.00;3.60;;;;;;;34.73;24.28;101341.91;5051751;28;20056;-82
2022/07/24 11:43:03;;;;;;;4.75;3.70;;;;;;;34.75;23.57;101352.97;5032643;28;21363;-82